sensor_id;sensor_type;location;lat;lon;timestamp;pressure;altitude;pressure_sealevel;temperature;humidity
55590;BME280;41452;42.780;23.116;2023-02-11T00:07:36;95984.66;;;-5.42;83.91
55590;BME280;41452;42.780;23.116;2023-02-11T00:32:51;95980.91;;;-5.50;82.03
55590;BME280;41452;42.780;23.116;2023-02-11T03:12:57;95942.94;;;-6.60;86.98
55590;BME280;41452;42.780;23.116;2023-02-11T03:29:26;95917.78;;;-6.68;87.72
55590;BME280;41452;42.780;23.116;2023-02-11T04:24:13;95925.06;;;-6.46;85.56
55590;BME280;41452;42.780;23.116;2023-02-11T05:20:23;95904.69;;;-7.08;87.35
55590;BME280;41452;42.780;23.116;2023-02-11T06:23:25;95861.78;;;-7.17;91.07
55590;BME280;41452;42.780;23.116;2023-02-11T06:25:51;95920.53;;;-6.71;91.00
55590;BME280;41452;42.780;23.116;2023-02-11T06:28:17;95921.25;;;-6.69;90.81
55590;BME280;41452;42.780;23.116;2023-02-11T06:30:42;95927.75;;;-6.63;91.42
55590;BME280;41452;42.780;23.116;2023-02-11T06:33:08;95927.22;;;-6.54;90.89
55590;BME280;41452;42.780;23.116;2023-02-11T06:35:33;95925.88;;;-6.45;90.31
55590;BME280;41452;42.780;23.116;2023-02-11T06:38:00;95930.09;;;-6.44;90.21
55590;BME280;41452;42.780;23.116;2023-02-11T06:40:25;95930.84;;;-6.42;90.38
55590;BME280;41452;42.780;23.116;2023-02-11T06:42:51;95928.69;;;-6.34;89.48
55590;BME280;41452;42.780;23.116;2023-02-11T06:45:16;95933.50;;;-6.29;90.01
55590;BME280;41452;42.780;23.116;2023-02-11T06:47:42;95923.13;;;-6.26;90.40
55590;BME280;41452;42.780;23.116;2023-02-11T06:50:11;95919.53;;;-6.24;90.29
55590;BME280;41452;42.780;23.116;2023-02-11T06:52:36;95920.03;;;-6.17;90.01
55590;BME280;41452;42.780;23.116;2023-02-11T06:55:02;95863.09;;;-6.50;89.88
55590;BME280;41452;42.780;23.116;2023-02-11T06:57:29;95924.34;;;-6.03;88.58
55590;BME280;41452;42.780;23.116;2023-02-11T06:59:54;95916.38;;;-5.99;89.29
55590;BME280;41452;42.780;23.116;2023-02-11T07:02:20;95929.78;;;-5.95;89.29
55590;BME280;41452;42.780;23.116;2023-02-11T07:04:45;95931.72;;;-5.84;89.25
55590;BME280;41452;42.780;23.116;2023-02-11T07:07:10;95930.53;;;-5.79;88.19
55590;BME280;41452;42.780;23.116;2023-02-11T07:09:36;95923.41;;;-5.74;88.57
55590;BME280;41452;42.780;23.116;2023-02-11T07:12:01;95916.47;;;-5.71;88.42
55590;BME280;41452;42.780;23.116;2023-02-11T07:14:27;95922.47;;;-5.58;87.86
55590;BME280;41452;42.780;23.116;2023-02-11T07:16:52;95922.38;;;-5.57;86.92
55590;BME280;41452;42.780;23.116;2023-02-11T07:19:17;95921.72;;;-5.46;87.68
55590;BME280;41452;42.780;23.116;2023-02-11T07:21:43;95906.91;;;-5.41;86.17
55590;BME280;41452;42.780;23.116;2023-02-11T07:24:09;95911.78;;;-5.36;86.20
55590;BME280;41452;42.780;23.116;2023-02-11T07:26:35;95895.47;;;-5.35;86.66
55590;BME280;41452;42.780;23.116;2023-02-11T07:29:00;95904.78;;;-5.20;85.34
55590;BME280;41452;42.780;23.116;2023-02-11T07:31:27;95901.63;;;-5.10;85.90
55590;BME280;41452;42.780;23.116;2023-02-11T07:33:56;95896.97;;;-5.04;85.37
55590;BME280;41452;42.780;23.116;2023-02-11T07:36:22;95903.63;;;-5.01;84.25
55590;BME280;41452;42.780;23.116;2023-02-11T07:38:48;95890.53;;;-4.97;83.30
55590;BME280;41452;42.780;23.116;2023-02-11T07:41:17;95896.38;;;-4.94;84.87
55590;BME280;41452;42.780;23.116;2023-02-11T07:43:43;95889.75;;;-4.84;83.97
55590;BME280;41452;42.780;23.116;2023-02-11T07:46:11;95890.47;;;-4.82;83.12
55590;BME280;41452;42.780;23.116;2023-02-11T07:48:37;95893.78;;;-4.67;82.33
55590;BME280;41452;42.780;23.116;2023-02-11T07:51:20;95894.22;;;-4.61;81.57
55590;BME280;41452;42.780;23.116;2023-02-11T07:53:47;95890.84;;;-4.61;83.07
55590;BME280;41452;42.780;23.116;2023-02-11T07:56:14;95899.16;;;-4.57;82.04
55590;BME280;41452;42.780;23.116;2023-02-11T07:58:39;95890.16;;;-4.50;81.59
55590;BME280;41452;42.780;23.116;2023-02-11T08:01:11;95866.72;;;-4.59;80.54
55590;BME280;41452;42.780;23.116;2023-02-11T08:03:38;95889.97;;;-4.34;80.36
55590;BME280;41452;42.780;23.116;2023-02-11T08:06:12;95886.69;;;-4.36;79.50
55590;BME280;41452;42.780;23.116;2023-02-11T08:08:38;95885.13;;;-4.39;79.79
55590;BME280;41452;42.780;23.116;2023-02-11T08:11:13;95895.91;;;-4.34;80.93
55590;BME280;41452;42.780;23.116;2023-02-11T08:13:39;95895.28;;;-4.37;80.16
55590;BME280;41452;42.780;23.116;2023-02-11T08:16:05;95896.13;;;-4.37;78.74
55590;BME280;41452;42.780;23.116;2023-02-11T08:18:31;95889.56;;;-4.28;79.54
55590;BME280;41452;42.780;23.116;2023-02-11T08:21:05;95894.00;;;-4.05;80.67
55590;BME280;41452;42.780;23.116;2023-02-11T08:23:30;95898.59;;;-3.97;80.26
55590;BME280;41452;42.780;23.116;2023-02-11T08:26:03;95891.31;;;-3.90;79.98
55590;BME280;41452;42.780;23.116;2023-02-11T08:28:28;95889.88;;;-3.82;80.44
55590;BME280;41452;42.780;23.116;2023-02-11T08:30:54;95891.94;;;-3.74;79.95
55590;BME280;41452;42.780;23.116;2023-02-11T08:33:19;95884.63;;;-3.67;80.21
55590;BME280;41452;42.780;23.116;2023-02-11T08:35:45;95886.66;;;-3.59;78.28
55590;BME280;41452;42.780;23.116;2023-02-11T08:38:10;95885.53;;;-3.55;79.76
55590;BME280;41452;42.780;23.116;2023-02-11T08:40:35;95882.94;;;-3.55;79.37
55590;BME280;41452;42.780;23.116;2023-02-11T08:43:01;95870.84;;;-3.66;77.59
55590;BME280;41452;42.780;23.116;2023-02-11T08:45:26;95890.75;;;-3.44;76.20
55590;BME280;41452;42.780;23.116;2023-02-11T08:47:52;95857.16;;;-3.54;75.14
55590;BME280;41452;42.780;23.116;2023-02-11T08:50:17;95899.78;;;-3.38;74.95
55590;BME280;41452;42.780;23.116;2023-02-11T08:52:43;95891.03;;;-3.23;74.48
55590;BME280;41452;42.780;23.116;2023-02-11T08:55:08;95892.03;;;-3.26;74.94
55590;BME280;41452;42.780;23.116;2023-02-11T08:57:34;95874.59;;;-3.33;74.97
55590;BME280;41452;42.780;23.116;2023-02-11T08:59:59;95882.22;;;-3.08;74.01
55590;BME280;41452;42.780;23.116;2023-02-11T09:02:24;95883.09;;;-2.96;74.36
55590;BME280;41452;42.780;23.116;2023-02-11T09:04:50;95895.63;;;-2.91;75.27
55590;BME280;41452;42.780;23.116;2023-02-11T09:07:15;95889.56;;;-2.90;74.08
55590;BME280;41452;42.780;23.116;2023-02-11T09:09:40;95888.94;;;-2.94;73.34
55590;BME280;41452;42.780;23.116;2023-02-11T09:12:06;95880.25;;;-2.80;72.36
55590;BME280;41452;42.780;23.116;2023-02-11T09:14:31;95879.94;;;-2.75;73.35
55590;BME280;41452;42.780;23.116;2023-02-11T09:16:57;95880.63;;;-2.73;72.63
55590;BME280;41452;42.780;23.116;2023-02-11T09:19:22;95880.56;;;-2.84;71.74
55590;BME280;41452;42.780;23.116;2023-02-11T09:21:48;95886.41;;;-2.58;73.57
55590;BME280;41452;42.780;23.116;2023-02-11T09:24:14;95873.44;;;-2.57;72.36
55590;BME280;41452;42.780;23.116;2023-02-11T09:49:47;95844.56;;;-1.57;67.90
55590;BME280;41452;42.780;23.116;2023-02-11T09:54:56;95831.31;;;-1.64;70.46
55590;BME280;41452;42.780;23.116;2023-02-11T09:57:32;95819.03;;;-1.60;70.55
55590;BME280;41452;42.780;23.116;2023-02-11T09:59:59;95826.88;;;-1.50;69.09
55590;BME280;41452;42.780;23.116;2023-02-11T10:02:31;95820.19;;;-1.42;70.24
55590;BME280;41452;42.780;23.116;2023-02-11T10:10:27;95786.56;;;-1.40;68.55
55590;BME280;41452;42.780;23.116;2023-02-11T10:15:41;95795.75;;;-1.15;68.56
55590;BME280;41452;42.780;23.116;2023-02-11T10:23:16;95772.44;;;-0.92;67.75
55590;BME280;41452;42.780;23.116;2023-02-11T10:25:45;95761.81;;;-0.99;67.91
55590;BME280;41452;42.780;23.116;2023-02-11T10:28:19;95757.22;;;-0.96;67.82
55590;BME280;41452;42.780;23.116;2023-02-11T10:30:58;95758.03;;;-0.95;66.99
55590;BME280;41452;42.780;23.116;2023-02-11T10:34:09;95741.00;;;-0.86;67.52
55590;BME280;41452;42.780;23.116;2023-02-11T10:36:39;95729.16;;;-0.89;66.75
55590;BME280;41452;42.780;23.116;2023-02-11T10:39:20;95730.88;;;-0.78;65.08
55590;BME280;41452;42.780;23.116;2023-02-11T10:41:56;95725.44;;;-0.75;65.87
55590;BME280;41452;42.780;23.116;2023-02-11T10:44:33;95728.03;;;-0.75;65.27
55590;BME280;41452;42.780;23.116;2023-02-11T10:47:12;95669.78;;;-0.99;65.75
55590;BME280;41452;42.780;23.116;2023-02-11T10:49:42;95714.69;;;-0.59;67.25
55590;BME280;41452;42.780;23.116;2023-02-11T10:55:13;95703.00;;;-0.32;66.24
55590;BME280;41452;42.780;23.116;2023-02-11T11:00:34;95706.53;;;-0.33;63.29
55590;BME280;41452;42.780;23.116;2023-02-11T11:03:22;95698.81;;;-0.24;63.26
55590;BME280;41452;42.780;23.116;2023-02-11T11:05:54;95694.34;;;-0.22;61.11
55590;BME280;41452;42.780;23.116;2023-02-11T11:08:20;95688.41;;;-0.12;60.74
55590;BME280;41452;42.780;23.116;2023-02-11T11:11:02;95691.81;;;-0.12;60.50
55590;BME280;41452;42.780;23.116;2023-02-11T11:18:38;95677.66;;;-0.08;61.49
55590;BME280;41452;42.780;23.116;2023-02-11T11:21:05;95678.41;;;0.14;62.60
55590;BME280;41452;42.780;23.116;2023-02-11T11:23:35;95687.13;;;0.13;59.48
55590;BME280;41452;42.780;23.116;2023-02-11T11:26:24;95684.66;;;0.21;59.25
55590;BME280;41452;42.780;23.116;2023-02-11T11:28:56;95685.75;;;0.28;59.10
55590;BME280;41452;42.780;23.116;2023-02-11T11:31:47;95675.03;;;0.23;57.74
55590;BME280;41452;42.780;23.116;2023-02-11T11:34:20;95673.53;;;0.21;60.02
55590;BME280;41452;42.780;23.116;2023-02-11T11:36:46;95677.88;;;0.20;59.07
55590;BME280;41452;42.780;23.116;2023-02-11T11:39:32;95678.72;;;0.40;60.50
55590;BME280;41452;42.780;23.116;2023-02-11T11:42:23;95670.97;;;0.50;61.37
55590;BME280;41452;42.780;23.116;2023-02-11T11:45:00;95661.72;;;0.67;63.80
55590;BME280;41452;42.780;23.116;2023-02-11T11:47:58;95659.53;;;0.82;61.26
55590;BME280;41452;42.780;23.116;2023-02-11T11:50:26;95628.91;;;0.67;58.74
55590;BME280;41452;42.780;23.116;2023-02-11T11:55:37;95654.50;;;0.90;60.94
55590;BME280;41452;42.780;23.116;2023-02-11T11:58:12;95648.22;;;1.02;60.29
55590;BME280;41452;42.780;23.116;2023-02-11T12:04:11;95636.66;;;0.87;58.43
55590;BME280;41452;42.780;23.116;2023-02-11T12:20:13;95608.69;;;1.20;54.94
55590;BME280;41452;42.780;23.116;2023-02-11T12:25:59;95601.78;;;1.01;53.55
55590;BME280;41452;42.780;23.116;2023-02-11T12:34:28;95581.59;;;1.51;54.36
55590;BME280;41452;42.780;23.116;2023-02-11T12:37:04;95580.28;;;1.65;54.41
55590;BME280;41452;42.780;23.116;2023-02-11T12:48:15;95579.31;;;1.66;50.95
55590;BME280;41452;42.780;23.116;2023-02-11T12:50:56;95577.13;;;1.71;51.87
55590;BME280;41452;42.780;23.116;2023-02-11T12:53:43;95567.00;;;1.78;51.53
55590;BME280;41452;42.780;23.116;2023-02-11T12:56:22;95570.50;;;1.87;50.87
55590;BME280;41452;42.780;23.116;2023-02-11T12:58:51;95573.59;;;1.90;50.91
55590;BME280;41452;42.780;23.116;2023-02-11T13:01:20;95568.09;;;1.94;50.55
55590;BME280;41452;42.780;23.116;2023-02-11T13:06:51;95488.88;;;1.37;48.85
55590;BME280;41452;42.780;23.116;2023-02-11T13:09:22;95560.63;;;1.73;50.05
55590;BME280;41452;42.780;23.116;2023-02-11T13:11:51;95562.25;;;1.74;49.46
55590;BME280;41452;42.780;23.116;2023-02-11T13:16:51;95553.16;;;1.87;50.99
55590;BME280;41452;42.780;23.116;2023-02-11T13:24:58;95552.06;;;2.08;50.45
55590;BME280;41452;42.780;23.116;2023-02-11T13:41:33;95527.75;;;2.71;49.72
55590;BME280;41452;42.780;23.116;2023-02-11T13:44:21;95529.13;;;2.57;49.61
55590;BME280;41452;42.780;23.116;2023-02-11T13:47:05;95530.81;;;2.22;50.33
55590;BME280;41452;42.780;23.116;2023-02-11T13:49:39;95531.72;;;2.31;50.35
55590;BME280;41452;42.780;23.116;2023-02-11T13:52:26;95519.69;;;2.30;51.04
55590;BME280;41452;42.780;23.116;2023-02-11T13:54:55;95531.47;;;2.24;50.70
55590;BME280;41452;42.780;23.116;2023-02-11T14:02:31;95519.34;;;2.07;48.67
55590;BME280;41452;42.780;23.116;2023-02-11T14:05:25;95512.09;;;2.11;50.45
55590;BME280;41452;42.780;23.116;2023-02-11T14:11:00;95513.88;;;1.92;47.96
55590;BME280;41452;42.780;23.116;2023-02-11T14:16:11;95516.13;;;2.13;48.52
55590;BME280;41452;42.780;23.116;2023-02-11T14:18:57;95437.25;;;1.54;48.55
55590;BME280;41452;42.780;23.116;2023-02-11T14:42:53;95507.94;;;1.82;49.10
55590;BME280;41452;42.780;23.116;2023-02-11T14:45:23;95512.31;;;1.81;48.26
55590;BME280;41452;42.780;23.116;2023-02-11T14:50:31;95505.78;;;1.77;49.32
55590;BME280;41452;42.780;23.116;2023-02-11T14:53:00;95497.59;;;1.82;49.75
55590;BME280;41452;42.780;23.116;2023-02-11T14:55:30;95503.56;;;1.82;50.16
55590;BME280;41452;42.780;23.116;2023-02-11T15:00:49;95495.03;;;1.90;49.67
55590;BME280;41452;42.780;23.116;2023-02-11T15:05:56;95487.59;;;1.87;49.81
55590;BME280;41452;42.780;23.116;2023-02-11T15:08:22;95489.66;;;1.83;50.23
55590;BME280;41452;42.780;23.116;2023-02-11T15:10:48;95480.84;;;1.76;50.46
55590;BME280;41452;42.780;23.116;2023-02-11T15:13:20;95482.75;;;1.74;50.63
55590;BME280;41452;42.780;23.116;2023-02-11T15:15:49;95478.47;;;1.65;51.01
55590;BME280;41452;42.780;23.116;2023-02-11T15:18:20;95478.19;;;1.68;51.79
55590;BME280;41452;42.780;23.116;2023-02-11T15:20:47;95480.47;;;1.71;52.42
55590;BME280;41452;42.780;23.116;2023-02-11T15:23:21;95437.03;;;1.47;51.32
55590;BME280;41452;42.780;23.116;2023-02-11T15:25:49;95442.31;;;1.55;51.61
55590;BME280;41452;42.780;23.116;2023-02-11T15:28:28;95467.91;;;1.58;51.90
55590;BME280;41452;42.780;23.116;2023-02-11T15:31:18;95473.59;;;1.62;52.57
55590;BME280;41452;42.780;23.116;2023-02-11T15:33:42;95472.47;;;1.64;52.75
55590;BME280;41452;42.780;23.116;2023-02-11T15:36:11;95478.97;;;1.68;53.06
55590;BME280;41452;42.780;23.116;2023-02-11T15:38:38;95473.81;;;1.68;52.96
55590;BME280;41452;42.780;23.116;2023-02-11T15:41:05;95472.47;;;1.64;53.36
55590;BME280;41452;42.780;23.116;2023-02-11T15:43:49;95481.88;;;1.65;53.95
55590;BME280;41452;42.780;23.116;2023-02-11T15:46:20;95475.81;;;1.57;54.33
55590;BME280;41452;42.780;23.116;2023-02-11T15:48:53;95481.03;;;1.47;54.49
55590;BME280;41452;42.780;23.116;2023-02-11T15:51:20;95473.03;;;1.40;54.64
55590;BME280;41452;42.780;23.116;2023-02-11T15:53:53;95477.34;;;1.31;55.30
55590;BME280;41452;42.780;23.116;2023-02-11T15:56:27;95476.44;;;1.23;54.77
55590;BME280;41452;42.780;23.116;2023-02-11T15:59:00;95448.91;;;0.94;54.47
55590;BME280;41452;42.780;23.116;2023-02-11T16:01:35;95475.59;;;0.94;55.47
55590;BME280;41452;42.780;23.116;2023-02-11T16:04:03;95474.72;;;0.76;56.41
55590;BME280;41452;42.780;23.116;2023-02-11T16:06:39;95477.63;;;0.63;56.97
55590;BME280;41452;42.780;23.116;2023-02-11T16:11:54;95481.44;;;0.49;58.67
55590;BME280;41452;42.780;23.116;2023-02-11T16:16:53;95477.69;;;0.34;57.66
55590;BME280;41452;42.780;23.116;2023-02-11T16:19:21;95471.84;;;0.12;58.50
55590;BME280;41452;42.780;23.116;2023-02-11T16:21:48;95481.53;;;-0.09;59.02
55590;BME280;41452;42.780;23.116;2023-02-11T16:26:48;95474.88;;;-0.31;59.85
55590;BME280;41452;42.780;23.116;2023-02-11T16:29:16;95470.13;;;-0.26;59.67
55590;BME280;41452;42.780;23.116;2023-02-11T16:31:45;95426.91;;;-0.53;60.55
55590;BME280;41452;42.780;23.116;2023-02-11T16:34:17;95472.03;;;-0.28;59.89
55590;BME280;41452;42.780;23.116;2023-02-11T16:36:43;95480.72;;;-0.29;59.49
55590;BME280;41452;42.780;23.116;2023-02-11T16:39:09;95485.47;;;-0.34;59.22
55590;BME280;41452;42.780;23.116;2023-02-11T16:41:35;95468.50;;;-0.37;60.58
55590;BME280;41452;42.780;23.116;2023-02-11T16:44:00;95474.22;;;-0.33;61.40
55590;BME280;41452;42.780;23.116;2023-02-11T16:46:26;95473.66;;;-0.37;60.94
55590;BME280;41452;42.780;23.116;2023-02-11T16:48:53;95480.56;;;-0.38;61.41
55590;BME280;41452;42.780;23.116;2023-02-11T16:51:18;95485.91;;;-0.39;61.25
55590;BME280;41452;42.780;23.116;2023-02-11T16:53:44;95485.34;;;-0.43;61.75
55590;BME280;41452;42.780;23.116;2023-02-11T16:56:15;95489.81;;;-0.45;61.69
55590;BME280;41452;42.780;23.116;2023-02-11T16:58:41;95478.78;;;-0.47;62.08
55590;BME280;41452;42.780;23.116;2023-02-11T17:01:07;95475.66;;;-0.50;63.51
55590;BME280;41452;42.780;23.116;2023-02-11T17:03:33;95470.22;;;-0.57;63.81
55590;BME280;41452;42.780;23.116;2023-02-11T17:06:08;95466.53;;;-0.64;63.92
55590;BME280;41452;42.780;23.116;2023-02-11T17:08:33;95458.81;;;-0.64;62.84
55590;BME280;41452;42.780;23.116;2023-02-11T17:11:00;95468.88;;;-0.61;63.59
55590;BME280;41452;42.780;23.116;2023-02-11T17:13:25;95475.00;;;-0.62;64.16
55590;BME280;41452;42.780;23.116;2023-02-11T17:15:51;95475.25;;;-0.65;63.60
55590;BME280;41452;42.780;23.116;2023-02-11T17:18:16;95468.44;;;-0.66;63.79
55590;BME280;41452;42.780;23.116;2023-02-11T17:20:42;95466.97;;;-0.69;64.49
55590;BME280;41452;42.780;23.116;2023-02-11T17:23:07;95469.41;;;-0.67;63.65
55590;BME280;41452;42.780;23.116;2023-02-11T17:25:33;95477.16;;;-0.67;63.84
55590;BME280;41452;42.780;23.116;2023-02-11T17:28:01;95472.94;;;-0.68;63.50
55590;BME280;41452;42.780;23.116;2023-02-11T17:30:27;95482.31;;;-0.67;64.02
55590;BME280;41452;42.780;23.116;2023-02-11T17:32:52;95478.22;;;-0.70;63.46
55590;BME280;41452;42.780;23.116;2023-02-11T17:35:17;95485.44;;;-0.64;63.17
55590;BME280;41452;42.780;23.116;2023-02-11T17:37:43;95487.72;;;-0.61;63.03
55590;BME280;41452;42.780;23.116;2023-02-11T17:40:09;95479.88;;;-0.69;63.39
55590;BME280;41452;42.780;23.116;2023-02-11T17:42:35;95480.94;;;-0.71;63.20
55590;BME280;41452;42.780;23.116;2023-02-11T17:45:00;95490.88;;;-0.67;62.80
55590;BME280;41452;42.780;23.116;2023-02-11T17:47:25;95501.19;;;-0.67;63.05
55590;BME280;41452;42.780;23.116;2023-02-11T17:49:51;95497.78;;;-0.67;63.06
55590;BME280;41452;42.780;23.116;2023-02-11T17:52:16;95483.09;;;-0.77;63.07
55590;BME280;41452;42.780;23.116;2023-02-11T17:54:42;95506.50;;;-0.59;63.05
55590;BME280;41452;42.780;23.116;2023-02-11T17:57:09;95505.66;;;-0.69;63.53
55590;BME280;41452;42.780;23.116;2023-02-11T17:59:35;95508.66;;;-0.64;63.09
55590;BME280;41452;42.780;23.116;2023-02-11T18:02:02;95499.97;;;-0.63;63.45
55590;BME280;41452;42.780;23.116;2023-02-11T18:04:28;95507.41;;;-0.69;63.27
55590;BME280;41452;42.780;23.116;2023-02-11T18:06:53;95505.50;;;-0.77;63.77
55590;BME280;41452;42.780;23.116;2023-02-11T18:09:19;95498.28;;;-0.83;64.00
55590;BME280;41452;42.780;23.116;2023-02-11T18:11:44;95486.03;;;-0.91;64.33
55590;BME280;41452;42.780;23.116;2023-02-11T18:14:10;95486.03;;;-0.91;63.75
55590;BME280;41452;42.780;23.116;2023-02-11T18:16:36;95485.47;;;-1.04;63.25
55590;BME280;41452;42.780;23.116;2023-02-11T18:19:04;95485.28;;;-1.12;63.72
55590;BME280;41452;42.780;23.116;2023-02-11T18:21:31;95491.78;;;-1.18;64.12
55590;BME280;41452;42.780;23.116;2023-02-11T18:23:56;95489.47;;;-1.21;64.11
55590;BME280;41452;42.780;23.116;2023-02-11T18:26:22;95484.84;;;-1.27;62.82
55590;BME280;41452;42.780;23.116;2023-02-11T18:28:50;95487.09;;;-1.34;63.00
55590;BME280;41452;42.780;23.116;2023-02-11T18:31:17;95484.66;;;-1.36;63.38
55590;BME280;41452;42.780;23.116;2023-02-11T18:33:43;95481.09;;;-1.44;63.89
55590;BME280;41452;42.780;23.116;2023-02-11T18:36:11;95475.81;;;-1.43;63.53
55590;BME280;41452;42.780;23.116;2023-02-11T18:38:38;95470.91;;;-1.46;62.75
55590;BME280;41452;42.780;23.116;2023-02-11T18:41:04;95461.69;;;-1.48;62.40
55590;BME280;41452;42.780;23.116;2023-02-11T18:43:30;95459.34;;;-1.51;63.43
55590;BME280;41452;42.780;23.116;2023-02-11T18:45:57;95475.50;;;-1.49;61.92
55590;BME280;41452;42.780;23.116;2023-02-11T18:48:23;95473.63;;;-1.47;62.08
55590;BME280;41452;42.780;23.116;2023-02-11T18:50:51;95460.03;;;-1.49;61.69
55590;BME280;41452;42.780;23.116;2023-02-11T18:53:17;95466.16;;;-1.50;61.25
55590;BME280;41452;42.780;23.116;2023-02-11T18:55:43;95468.47;;;-1.47;60.64
55590;BME280;41452;42.780;23.116;2023-02-11T18:58:10;95468.47;;;-1.47;60.50
55590;BME280;41452;42.780;23.116;2023-02-11T19:00:37;95458.78;;;-1.55;60.50
55590;BME280;41452;42.780;23.116;2023-02-11T19:03:03;95441.22;;;-1.71;61.33
55590;BME280;41452;42.780;23.116;2023-02-11T19:05:28;95455.97;;;-1.52;60.39
55590;BME280;41452;42.780;23.116;2023-02-11T19:07:58;95456.41;;;-1.47;60.08
55590;BME280;41452;42.780;23.116;2023-02-11T19:10:25;95454.88;;;-1.49;60.01
55590;BME280;41452;42.780;23.116;2023-02-11T19:12:53;95463.31;;;-1.47;60.36
55590;BME280;41452;42.780;23.116;2023-02-11T19:15:21;95451.38;;;-1.48;60.50
55590;BME280;41452;42.780;23.116;2023-02-11T19:17:46;95458.16;;;-1.47;59.88
55590;BME280;41452;42.780;23.116;2023-02-11T19:20:12;95462.75;;;-1.51;59.81
55590;BME280;41452;42.780;23.116;2023-02-11T19:22:37;95434.81;;;-1.56;60.23
55590;BME280;41452;42.780;23.116;2023-02-11T19:25:02;95450.84;;;-1.42;59.98
55590;BME280;41452;42.780;23.116;2023-02-11T19:27:28;95449.28;;;-1.55;60.23
55590;BME280;41452;42.780;23.116;2023-02-11T19:29:53;95442.28;;;-1.52;60.73
55590;BME280;41452;42.780;23.116;2023-02-11T19:32:19;95438.31;;;-1.57;60.59
55590;BME280;41452;42.780;23.116;2023-02-11T19:34:44;95439.56;;;-1.51;60.10
55590;BME280;41452;42.780;23.116;2023-02-11T19:37:10;95437.56;;;-1.47;59.25
55590;BME280;41452;42.780;23.116;2023-02-11T19:39:38;95427.44;;;-1.60;59.02
55590;BME280;41452;42.780;23.116;2023-02-11T19:42:04;95372.28;;;-1.88;59.43
55590;BME280;41452;42.780;23.116;2023-02-11T19:44:29;95342.94;;;-2.07;59.10
55590;BME280;41452;42.780;23.116;2023-02-11T19:46:54;95438.88;;;-1.53;59.43
55590;BME280;41452;42.780;23.116;2023-02-11T19:49:20;95434.63;;;-1.64;60.04
55590;BME280;41452;42.780;23.116;2023-02-11T19:51:51;95427.19;;;-1.57;59.17
55590;BME280;41452;42.780;23.116;2023-02-11T19:54:17;95421.09;;;-1.56;59.78
55590;BME280;41452;42.780;23.116;2023-02-11T19:56:44;95425.00;;;-1.62;60.07
55590;BME280;41452;42.780;23.116;2023-02-11T19:59:09;95428.53;;;-1.63;59.95
55590;BME280;41452;42.780;23.116;2023-02-11T20:01:35;95421.72;;;-1.64;59.10
55590;BME280;41452;42.780;23.116;2023-02-11T20:04:01;95424.03;;;-1.70;59.03
55590;BME280;41452;42.780;23.116;2023-02-11T20:06:29;95359.13;;;-2.16;60.31
55590;BME280;41452;42.780;23.116;2023-02-11T20:08:57;95427.28;;;-1.68;59.77
55590;BME280;41452;42.780;23.116;2023-02-11T20:11:23;95421.72;;;-1.64;59.77
55590;BME280;41452;42.780;23.116;2023-02-11T20:13:49;95421.28;;;-1.69;59.53
55590;BME280;41452;42.780;23.116;2023-02-11T20:16:17;95425.41;;;-1.66;60.23
55590;BME280;41452;42.780;23.116;2023-02-11T20:18:44;95426.88;;;-1.64;59.35
55590;BME280;41452;42.780;23.116;2023-02-11T20:21:15;95412.22;;;-1.73;59.26
55590;BME280;41452;42.780;23.116;2023-02-11T20:23:41;95415.75;;;-1.74;59.62
55590;BME280;41452;42.780;23.116;2023-02-11T20:26:09;95417.72;;;-1.78;59.77
55590;BME280;41452;42.780;23.116;2023-02-11T20:28:36;95412.97;;;-1.82;60.10
55590;BME280;41452;42.780;23.116;2023-02-11T20:31:03;95406.16;;;-1.93;59.35
55590;BME280;41452;42.780;23.116;2023-02-11T20:33:29;95411.41;;;-1.95;60.11
55590;BME280;41452;42.780;23.116;2023-02-11T20:36:05;95405.84;;;-2.00;59.87
55590;BME280;41452;42.780;23.116;2023-02-11T20:38:32;95411.78;;;-1.99;59.92
55590;BME280;41452;42.780;23.116;2023-02-11T20:41:02;95413.22;;;-2.06;59.28
55590;BME280;41452;42.780;23.116;2023-02-11T20:43:28;95404.81;;;-2.08;59.38
55590;BME280;41452;42.780;23.116;2023-02-11T20:45:54;95410.19;;;-2.21;60.56
55590;BME280;41452;42.780;23.116;2023-02-11T20:48:19;95405.47;;;-2.16;60.16
55590;BME280;41452;42.780;23.116;2023-02-11T20:50:45;95404.16;;;-2.11;60.41
55590;BME280;41452;42.780;23.116;2023-02-11T20:53:10;95389.06;;;-2.15;60.27
55590;BME280;41452;42.780;23.116;2023-02-11T20:55:37;95383.22;;;-2.17;60.77
55590;BME280;41452;42.780;23.116;2023-02-11T20:58:04;95376.97;;;-2.24;61.58
55590;BME280;41452;42.780;23.116;2023-02-11T21:00:29;95318.94;;;-2.59;61.64
55590;BME280;41452;42.780;23.116;2023-02-11T21:02:55;95378.72;;;-2.25;62.61
55590;BME280;41452;42.780;23.116;2023-02-11T21:05:20;95373.03;;;-2.28;62.11
55590;BME280;41452;42.780;23.116;2023-02-11T21:07:46;95341.06;;;-2.47;61.94
55590;BME280;41452;42.780;23.116;2023-02-11T21:10:11;95377.47;;;-2.31;62.52
55590;BME280;41452;42.780;23.116;2023-02-11T21:12:37;95368.91;;;-2.31;62.86
55590;BME280;41452;42.780;23.116;2023-02-11T21:15:03;95366.06;;;-2.38;62.92
55590;BME280;41452;42.780;23.116;2023-02-11T21:17:30;95344.50;;;-2.58;62.34
55590;BME280;41452;42.780;23.116;2023-02-11T21:19:56;95295.09;;;-2.82;62.89
55590;BME280;41452;42.780;23.116;2023-02-11T21:22:22;95357.94;;;-2.54;63.51
55590;BME280;41452;42.780;23.116;2023-02-11T21:24:47;95357.75;;;-2.62;63.82
55590;BME280;41452;42.780;23.116;2023-02-11T21:27:13;95358.00;;;-2.65;64.33
55590;BME280;41452;42.780;23.116;2023-02-11T21:29:38;95362.56;;;-2.69;64.09
55590;BME280;41452;42.780;23.116;2023-02-11T21:32:04;95346.06;;;-2.67;64.76
55590;BME280;41452;42.780;23.116;2023-02-11T21:34:29;95344.22;;;-2.64;64.20
55590;BME280;41452;42.780;23.116;2023-02-11T21:36:54;95354.69;;;-2.56;62.87
55590;BME280;41452;42.780;23.116;2023-02-11T21:39:20;95346.16;;;-2.57;62.77
55590;BME280;41452;42.780;23.116;2023-02-11T21:41:45;95339.69;;;-2.51;62.56
55590;BME280;41452;42.780;23.116;2023-02-11T21:44:11;95354.38;;;-2.42;63.17
55590;BME280;41452;42.780;23.116;2023-02-11T21:46:37;95346.53;;;-2.40;63.95
55590;BME280;41452;42.780;23.116;2023-02-11T21:49:02;95355.09;;;-2.40;65.07